createdAt,value
2023-02-12T00:01:10.174Z,10.77
2023-02-12T00:03:38.000Z,11.57
2023-02-12T00:06:06.792Z,11.77
2023-02-12T00:08:33.883Z,11.70
2023-02-12T00:11:07.622Z,10.50
2023-02-12T00:13:34.425Z,10.30
2023-02-12T00:16:09.288Z,11.57
2023-02-12T00:18:36.982Z,10.88
2023-02-12T00:21:04.205Z,11.75
2023-02-12T00:23:31.724Z,12.30
2023-02-12T00:25:58.548Z,11.30
2023-02-12T00:28:26.432Z,11.55
2023-02-12T00:30:53.398Z,11.77
2023-02-12T00:33:20.224Z,12.52
2023-02-12T00:35:58.552Z,10.98
2023-02-12T00:38:25.548Z,10.70
2023-02-12T00:40:52.391Z,11.27
2023-02-12T00:43:19.361Z,11.98
2023-02-12T00:45:46.758Z,11.43
2023-02-12T00:48:14.578Z,10.95
2023-02-12T00:50:42.771Z,10.85
2023-02-12T00:53:09.574Z,11.18
2023-02-12T00:55:36.356Z,10.73
2023-02-12T00:58:03.221Z,11.63
2023-02-12T01:00:30.128Z,10.90
2023-02-12T01:02:56.896Z,10.48
2023-02-12T01:05:23.906Z,10.60
2023-02-12T01:07:52.451Z,10.10
2023-02-12T01:10:23.388Z,11.63
2023-02-12T01:12:50.877Z,10.70
2023-02-12T01:15:18.974Z,10.20
2023-02-12T01:17:46.170Z,10.50
2023-02-12T01:20:20.650Z,10.98
2023-02-12T01:22:47.902Z,9.55
2023-02-12T01:25:15.311Z,10.40
2023-02-12T01:27:42.105Z,10.50
2023-02-12T01:30:12.374Z,10.13
2023-02-12T01:32:39.286Z,9.02
2023-02-12T01:35:08.457Z,9.60
2023-02-12T01:37:37.729Z,9.77
2023-02-12T01:40:07.361Z,9.90
2023-02-12T01:42:35.167Z,9.85
2023-02-12T01:45:14.082Z,9.45
2023-02-12T01:47:45.452Z,9.88
2023-02-12T01:50:18.990Z,9.52
2023-02-12T01:52:51.939Z,6.80
2023-02-12T01:55:20.639Z,8.65
2023-02-12T01:57:49.260Z,8.95
2023-02-12T02:00:22.628Z,9.85
2023-02-12T02:02:55.000Z,9.20
2023-02-12T02:05:49.898Z,8.48
2023-02-12T02:08:17.065Z,9.00
2023-02-12T02:10:43.882Z,9.20
2023-02-12T02:13:29.139Z,8.80
2023-02-12T02:16:01.829Z,9.05
2023-02-12T02:18:46.593Z,9.57
2023-02-12T02:21:46.513Z,8.23
2023-02-12T02:24:23.186Z,9.60
2023-02-12T02:28:01.609Z,9.10
2023-02-12T02:30:45.286Z,9.30
2023-02-12T02:33:29.216Z,9.18
2023-02-12T02:36:14.682Z,7.83
2023-02-12T02:38:57.201Z,8.30
2023-02-12T02:41:55.204Z,9.25
2023-02-12T02:44:52.172Z,8.88
2023-02-12T02:47:32.936Z,10.10
2023-02-12T02:50:18.804Z,8.85
2023-02-12T02:53:05.456Z,9.60
2023-02-12T02:55:47.317Z,9.48
2023-02-12T02:58:27.024Z,10.00
2023-02-12T03:01:19.000Z,8.93
2023-02-12T03:04:01.414Z,9.00
2023-02-12T03:06:47.413Z,9.18
2023-02-12T03:09:31.966Z,9.57
2023-02-12T03:14:37.754Z,8.63
2023-02-12T03:19:56.075Z,8.27
2023-02-12T03:22:33.320Z,9.43
2023-02-12T03:25:15.478Z,9.82
2023-02-12T03:27:54.678Z,8.70
2023-02-12T03:30:22.861Z,9.18
2023-02-12T03:33:30.273Z,10.02
2023-02-12T03:36:22.959Z,9.75
2023-02-12T03:38:55.437Z,9.30
2023-02-12T03:41:32.702Z,9.77
2023-02-12T03:44:28.473Z,10.07
2023-02-12T03:47:30.142Z,8.73
2023-02-12T03:50:16.672Z,9.10
2023-02-12T03:52:43.900Z,9.27
2023-02-12T03:55:11.442Z,9.05
2023-02-12T03:57:44.608Z,10.07
2023-02-12T04:00:18.629Z,10.63
2023-02-12T04:02:46.105Z,9.45
2023-02-12T04:05:26.528Z,11.48
2023-02-12T04:07:56.046Z,10.55
2023-02-12T04:10:33.289Z,10.57
2023-02-12T04:13:19.360Z,9.20
2023-02-12T04:16:41.780Z,9.27
2023-02-12T04:19:14.143Z,8.38
2023-02-12T04:21:47.002Z,8.60
2023-02-12T04:24:56.897Z,9.32
2023-02-12T04:28:11.173Z,9.48
2023-02-12T04:30:46.081Z,9.07
2023-02-12T04:33:21.300Z,9.00
2023-02-12T04:35:57.178Z,9.02
2023-02-12T04:38:27.856Z,8.73
2023-02-12T04:40:55.193Z,9.18
2023-02-12T04:43:36.587Z,9.05
2023-02-12T04:46:06.453Z,8.82
2023-02-12T04:48:34.658Z,9.70
2023-02-12T04:51:01.984Z,8.55
2023-02-12T04:53:29.205Z,8.70
2023-02-12T04:55:56.401Z,9.30
2023-02-12T04:58:23.354Z,9.88
2023-02-12T05:00:50.126Z,9.82
2023-02-12T05:03:16.922Z,11.02
2023-02-12T05:05:43.743Z,10.50
2023-02-12T05:08:10.497Z,11.27
2023-02-12T05:10:37.287Z,9.80
2023-02-12T05:13:04.096Z,10.35
2023-02-12T05:15:30.890Z,10.05
2023-02-12T05:17:57.721Z,10.65
2023-02-12T05:20:24.516Z,9.43
2023-02-12T05:22:54.458Z,10.02
2023-02-12T05:25:21.871Z,10.05
2023-02-12T05:27:48.686Z,11.55
2023-02-12T05:30:15.610Z,10.30
2023-02-12T05:32:42.395Z,9.90
2023-02-12T05:35:09.227Z,10.32
2023-02-12T05:37:36.667Z,10.02
2023-02-12T05:40:08.698Z,9.30
2023-02-12T05:42:35.652Z,10.52
2023-02-12T05:45:02.467Z,9.85
2023-02-12T05:47:29.273Z,10.35
2023-02-12T05:49:56.119Z,8.95
2023-02-12T05:52:22.928Z,9.70
2023-02-12T05:54:50.551Z,9.98
2023-02-12T05:57:17.359Z,10.32
2023-02-12T05:59:44.169Z,10.18
2023-02-12T06:02:11.061Z,10.68
2023-02-12T06:04:37.886Z,10.38
2023-02-12T06:07:04.703Z,10.75
2023-02-12T06:09:31.471Z,11.20
2023-02-12T06:11:58.230Z,10.75
2023-02-12T06:14:25.017Z,11.30
2023-02-12T06:16:52.835Z,11.43
2023-02-12T06:19:20.217Z,11.55
2023-02-12T06:21:47.751Z,10.77
2023-02-12T06:24:16.365Z,10.45
2023-02-12T06:26:43.439Z,10.93
2023-02-12T06:29:10.437Z,10.35
2023-02-12T06:31:38.181Z,10.40
2023-02-12T06:34:08.746Z,10.40
2023-02-12T06:36:39.273Z,9.73
2023-02-12T06:39:06.702Z,9.77
2023-02-12T06:41:34.197Z,10.15
2023-02-12T06:44:00.975Z,10.57
2023-02-12T06:46:28.178Z,10.95
2023-02-12T06:48:57.896Z,10.75
2023-02-12T06:51:25.756Z,11.18
2023-02-12T06:53:54.439Z,11.13
2023-02-12T06:56:22.873Z,11.00
2023-02-12T06:58:56.415Z,11.52
2023-02-12T07:01:27.515Z,11.18
2023-02-12T07:04:12.877Z,12.07
2023-02-12T07:06:39.841Z,11.20
2023-02-12T07:09:06.707Z,10.75
2023-02-12T07:11:38.141Z,12.60
2023-02-12T07:14:06.437Z,11.60
2023-02-12T07:16:33.440Z,12.38
2023-02-12T07:19:00.292Z,11.73
2023-02-12T07:21:27.060Z,13.45
2023-02-12T07:23:53.939Z,15.02
2023-02-12T07:26:21.834Z,14.82
2023-02-12T07:28:50.698Z,14.80
2023-02-12T07:31:21.909Z,15.57
2023-02-12T07:33:50.147Z,15.70
2023-02-12T07:36:19.235Z,14.88
2023-02-12T07:38:47.099Z,15.77
2023-02-12T07:41:16.377Z,15.65
2023-02-12T07:43:46.706Z,16.25
2023-02-12T07:46:22.765Z,15.38
2023-02-12T07:48:52.162Z,16.73
2023-02-12T07:51:19.316Z,17.73
2023-02-12T07:53:46.623Z,16.73
2023-02-12T07:56:23.291Z,14.43
2023-02-12T07:58:52.848Z,16.45
2023-02-12T08:01:32.583Z,14.90
2023-02-12T08:04:02.803Z,15.20
2023-02-12T08:06:32.519Z,14.35
2023-02-12T08:09:02.167Z,14.25
2023-02-12T08:11:30.051Z,15.15
2023-02-12T08:13:58.248Z,14.95
2023-02-12T08:16:27.063Z,15.88
2023-02-12T08:18:55.120Z,14.10
2023-02-12T08:21:25.951Z,15.07
2023-02-12T08:23:56.021Z,14.55
2023-02-12T08:26:28.931Z,15.05
2023-02-12T08:29:06.734Z,14.88
2023-02-12T08:31:38.178Z,15.55
2023-02-12T08:34:05.959Z,13.52
2023-02-12T08:36:40.038Z,13.30
2023-02-12T08:39:08.293Z,15.18
2023-02-12T08:41:35.557Z,13.27
2023-02-12T08:44:05.221Z,13.88
2023-02-12T08:46:38.093Z,13.43
2023-02-12T08:49:10.159Z,14.88
2023-02-12T08:51:40.917Z,13.38
2023-02-12T08:54:12.941Z,13.07
2023-02-12T08:56:40.107Z,12.43
2023-02-12T08:59:08.279Z,13.27
2023-02-12T09:01:40.940Z,12.15
2023-02-12T09:04:15.385Z,12.90
2023-02-12T09:06:42.192Z,12.27
2023-02-12T09:09:09.016Z,12.85
2023-02-12T09:11:36.064Z,13.05
2023-02-12T09:14:06.661Z,13.40
2023-02-12T09:19:47.166Z,11.43
2023-02-12T09:22:14.080Z,13.45
2023-02-12T09:24:41.053Z,12.85
2023-02-12T09:27:07.892Z,13.55
2023-02-12T09:29:34.694Z,12.70
2023-02-12T09:32:04.849Z,13.98
2023-02-12T09:34:35.610Z,15.05
2023-02-12T09:37:02.434Z,15.90
2023-02-12T09:39:30.670Z,15.30
2023-02-12T09:42:17.848Z,15.73
2023-02-12T09:45:01.213Z,14.90
2023-02-12T09:47:50.700Z,15.98
2023-02-12T09:50:38.003Z,15.98
2023-02-12T09:53:05.698Z,15.00
2023-02-12T09:55:35.025Z,16.02
2023-02-12T09:58:11.270Z,16.05
2023-02-12T10:00:38.871Z,14.30
2023-02-12T10:03:15.879Z,15.52
2023-02-12T10:05:52.591Z,14.65
2023-02-12T10:08:39.433Z,14.63
2023-02-12T10:15:55.148Z,14.00
2023-02-12T10:18:41.744Z,14.38
2023-02-12T10:21:20.944Z,15.85
2023-02-12T10:24:23.264Z,15.75
2023-02-12T10:26:55.547Z,14.95
2023-02-12T10:29:32.315Z,14.73
2023-02-12T10:32:24.372Z,14.70
2023-02-12T10:34:52.708Z,14.55
2023-02-12T10:37:43.958Z,14.68
2023-02-12T10:40:34.040Z,16.15
2023-02-12T10:43:02.846Z,13.77
2023-02-12T10:45:40.084Z,15.10
2023-02-12T10:48:23.877Z,14.93
2023-02-12T10:51:08.237Z,14.60
2023-02-12T10:53:36.669Z,17.27
2023-02-12T10:56:14.077Z,17.40
2023-02-12T10:59:02.210Z,19.05
2023-02-12T11:01:36.128Z,18.25
2023-02-12T11:04:40.205Z,18.00
2023-02-12T11:07:09.813Z,19.90
2023-02-12T11:09:46.820Z,19.27
2023-02-12T11:12:42.421Z,22.52
2023-02-12T11:15:24.883Z,23.02
2023-02-12T11:18:01.094Z,22.67
2023-02-12T11:20:39.045Z,21.70
2023-02-12T11:23:42.786Z,24.13
2023-02-12T11:26:18.790Z,26.50
2023-02-12T11:29:00.262Z,25.55
2023-02-12T11:31:35.438Z,25.92
2023-02-12T11:34:20.111Z,27.35
2023-02-12T11:36:53.244Z,26.80
2023-02-12T11:39:34.937Z,27.27
2023-02-12T11:42:25.964Z,27.00
2023-02-12T11:44:56.749Z,23.83
2023-02-12T11:47:30.602Z,23.77
2023-02-12T11:50:22.466Z,23.20
2023-02-12T11:52:52.538Z,24.92
2023-02-12T11:55:33.841Z,28.15
2023-02-12T11:58:21.732Z,27.75
2023-02-12T12:01:22.739Z,30.65
2023-02-12T12:04:11.941Z,31.80
2023-02-12T12:06:49.162Z,34.53
2023-02-12T12:09:44.755Z,34.83
2023-02-12T12:12:23.991Z,37.42
2023-02-12T12:15:26.685Z,35.67
2023-02-12T12:18:20.743Z,33.47
2023-02-12T12:21:03.549Z,32.73
2023-02-12T12:23:45.912Z,33.38
2023-02-12T12:26:34.720Z,32.55
2023-02-12T12:29:29.318Z,32.53
2023-02-12T12:32:02.003Z,34.05
2023-02-12T12:34:29.624Z,37.53
2023-02-12T12:37:37.028Z,34.85
2023-02-12T12:40:34.673Z,31.95
2023-02-12T12:43:52.208Z,33.75
2023-02-12T12:46:45.429Z,33.92
2023-02-12T12:49:25.807Z,34.03
2023-02-12T12:52:35.510Z,31.35
2023-02-12T12:55:24.057Z,30.88
2023-02-12T12:58:21.161Z,31.00
2023-02-12T13:01:53.600Z,29.17
2023-02-12T13:04:59.017Z,29.25
2023-02-12T13:10:33.816Z,27.02
2023-02-12T13:13:35.568Z,29.33
2023-02-12T13:16:29.044Z,27.90
2023-02-12T13:19:23.098Z,26.17
2023-02-12T13:22:47.263Z,19.97
2023-02-12T13:25:29.739Z,26.13
2023-02-12T13:27:59.906Z,25.17
2023-02-12T13:30:39.343Z,24.60
2023-02-12T13:33:18.202Z,25.17
2023-02-12T13:35:51.304Z,24.42
2023-02-12T13:38:26.137Z,23.05
2023-02-12T13:40:59.915Z,24.50
2023-02-12T13:44:06.672Z,21.45
2023-02-12T13:46:46.142Z,19.05
2023-02-12T13:49:53.613Z,18.13
2023-02-12T13:52:45.301Z,15.93
2023-02-12T13:55:26.211Z,17.50
2023-02-12T13:58:39.654Z,15.98
2023-02-12T14:01:41.687Z,18.20
2023-02-12T14:04:35.447Z,16.85
2023-02-12T14:07:12.864Z,17.88
2023-02-12T14:09:43.777Z,16.90
2023-02-12T14:12:26.157Z,18.63
2023-02-12T14:15:36.160Z,19.13
2023-02-12T14:18:02.902Z,17.98
2023-02-12T14:20:37.191Z,19.52
2023-02-12T14:26:06.047Z,17.58
2023-02-12T14:29:03.150Z,19.13
2023-02-12T14:31:36.140Z,16.48
2023-02-12T14:34:06.010Z,18.30
2023-02-12T14:36:32.732Z,16.90
2023-02-12T14:39:19.796Z,16.67
2023-02-12T14:41:53.467Z,14.82
2023-02-12T14:44:22.669Z,13.63
2023-02-12T14:46:59.293Z,11.55
2023-02-12T14:49:37.040Z,11.10
2023-02-12T14:52:14.149Z,10.45
2023-02-12T14:54:51.352Z,10.82
2023-02-12T14:57:33.782Z,10.73
2023-02-12T15:00:36.603Z,10.23
2023-02-12T15:03:14.435Z,9.13
2023-02-12T15:06:04.733Z,9.48
2023-02-12T15:08:37.165Z,8.27
2023-02-12T15:11:21.559Z,8.43
2023-02-12T15:14:16.068Z,7.53
2023-02-12T15:17:08.444Z,8.27
2023-02-12T15:19:57.238Z,8.85
2023-02-12T15:22:26.806Z,8.18
2023-02-12T15:24:53.624Z,8.60
2023-02-12T15:27:22.002Z,7.72
2023-02-12T15:29:55.224Z,8.70
2023-02-12T15:32:25.819Z,7.93
2023-02-12T15:34:54.335Z,9.93
2023-02-12T15:37:30.643Z,9.65
2023-02-12T15:40:01.298Z,7.30
2023-02-12T15:42:42.680Z,6.43
2023-02-12T18:09:46.607Z,8.55
2023-02-12T18:12:13.566Z,9.05
2023-02-12T18:14:41.951Z,7.57
2023-02-12T18:17:08.767Z,7.10
2023-02-12T18:19:35.713Z,7.32
2023-02-12T18:22:03.697Z,8.40
2023-02-12T18:24:33.186Z,8.75
2023-02-12T18:27:00.057Z,8.02
2023-02-12T18:29:26.868Z,6.60
2023-02-12T18:31:55.161Z,6.57
2023-02-12T18:34:24.908Z,4.97
2023-02-12T18:36:51.846Z,5.45
2023-02-12T18:39:18.754Z,4.68
2023-02-12T18:41:46.311Z,4.80
2023-02-12T18:44:14.347Z,4.97
2023-02-12T18:46:41.336Z,4.88
2023-02-12T18:49:08.422Z,4.72
2023-02-12T18:51:38.005Z,5.38
2023-02-12T18:54:08.748Z,5.53
2023-02-12T18:56:40.043Z,5.82
2023-02-12T18:59:08.020Z,6.35
2023-02-12T19:01:36.211Z,6.20
2023-02-12T19:04:06.286Z,6.25
2023-02-12T19:06:37.721Z,6.10
2023-02-12T19:09:04.617Z,7.35
2023-02-12T19:11:32.246Z,8.38
2023-02-12T19:13:59.356Z,8.95
2023-02-12T19:16:27.466Z,9.63
2023-02-12T19:18:58.340Z,8.48
2023-02-12T19:21:26.369Z,7.57
2023-02-12T19:23:55.398Z,6.60
2023-02-12T19:26:23.490Z,7.80
2023-02-12T19:31:37.981Z,7.90
2023-02-12T19:34:08.737Z,7.28
2023-02-12T19:36:36.836Z,8.05
2023-02-12T19:39:05.932Z,7.50
2023-02-12T19:41:40.477Z,7.95
2023-02-12T19:44:13.404Z,10.02
2023-02-12T19:46:40.848Z,11.15
2023-02-12T19:49:14.097Z,10.13
2023-02-12T19:51:41.651Z,9.23
2023-02-12T19:54:10.283Z,7.65
2023-02-12T19:56:37.966Z,9.27
2023-02-12T19:59:06.393Z,11.98
2023-02-12T20:01:34.525Z,10.68
2023-02-12T20:04:02.216Z,8.85
2023-02-12T20:06:34.050Z,7.38
2023-02-12T20:09:01.199Z,6.68
2023-02-12T20:11:31.270Z,6.45
2023-02-12T20:13:59.038Z,5.88
2023-02-12T20:16:31.157Z,5.88
2023-02-12T20:19:02.904Z,5.72
2023-02-12T20:21:29.817Z,6.55
2023-02-12T20:23:58.222Z,6.28
2023-02-12T20:26:25.622Z,5.82
2023-02-12T20:28:52.464Z,6.57
2023-02-12T20:31:29.046Z,6.20
2023-02-12T20:33:59.967Z,6.55
2023-02-12T20:36:30.714Z,6.38
2023-02-12T20:38:57.877Z,6.07
2023-02-12T20:41:26.775Z,5.97
2023-02-12T20:43:54.508Z,6.05
2023-02-12T20:46:23.461Z,5.35
2023-02-12T20:48:50.396Z,5.65
2023-02-12T20:51:24.464Z,5.60
2023-02-12T20:53:52.180Z,5.53
2023-02-12T20:56:25.774Z,5.85
2023-02-12T20:58:53.700Z,5.80
2023-02-12T21:01:25.462Z,5.60
2023-02-12T21:03:54.039Z,6.25
2023-02-12T21:06:22.875Z,5.88
2023-02-12T21:08:51.176Z,5.55
2023-02-12T21:11:22.472Z,5.88
2023-02-12T21:13:59.406Z,6.15
2023-02-12T21:16:36.865Z,5.75
2023-02-12T21:19:04.234Z,5.53
2023-02-12T21:21:34.940Z,5.63
2023-02-12T21:24:05.645Z,6.43
2023-02-12T21:26:33.788Z,5.05
2023-02-12T21:29:02.139Z,5.45
2023-02-12T21:31:38.774Z,5.75
2023-02-12T21:34:08.351Z,5.40
2023-02-12T21:36:39.066Z,4.97
2023-02-12T21:39:08.821Z,5.85
2023-02-12T21:41:39.688Z,5.78
2023-02-12T21:44:18.504Z,4.72
2023-02-12T21:46:45.706Z,5.75
2023-02-12T21:49:17.380Z,6.03
2023-02-12T21:51:45.252Z,5.40
2023-02-12T21:54:17.904Z,5.68
2023-02-12T21:56:47.185Z,5.72
2023-02-12T21:59:15.141Z,6.50
2023-02-12T22:01:50.934Z,5.55
2023-02-12T22:04:19.459Z,5.88
2023-02-12T22:06:50.549Z,5.85
2023-02-12T22:09:20.948Z,6.38
2023-02-12T22:11:47.768Z,6.75
2023-02-12T22:14:17.167Z,6.95
2023-02-12T22:16:45.281Z,7.47
2023-02-12T22:19:12.313Z,6.13
2023-02-12T22:21:41.579Z,6.90
2023-02-12T22:24:15.008Z,7.05
2023-02-12T22:26:42.704Z,4.75
2023-02-12T22:29:14.148Z,5.93
2023-02-12T22:31:43.920Z,5.80
2023-02-12T22:34:15.180Z,6.15
2023-02-12T22:36:43.323Z,6.78
2023-02-12T22:39:12.780Z,5.93
2023-02-12T22:41:39.799Z,5.90
2023-02-12T22:44:06.608Z,5.90
2023-02-12T22:46:35.141Z,6.45
2023-02-12T22:49:01.953Z,5.47
2023-02-12T22:51:31.752Z,5.95
2023-02-12T22:53:58.851Z,6.20
2023-02-12T22:56:26.325Z,5.88
2023-02-12T22:58:58.558Z,6.38
2023-02-12T23:01:27.108Z,6.28
2023-02-12T23:03:54.692Z,5.78
2023-02-12T23:06:26.722Z,5.88
2023-02-12T23:08:58.923Z,6.72
2023-02-12T23:11:28.602Z,6.68
2023-02-12T23:13:55.912Z,6.78
2023-02-12T23:16:22.744Z,7.32
2023-02-12T23:18:53.204Z,6.85
2023-02-12T23:21:19.996Z,7.88
2023-02-12T23:23:46.748Z,6.47
2023-02-12T23:26:13.521Z,6.55
2023-02-12T23:28:40.321Z,6.68
2023-02-12T23:31:07.401Z,7.22
2023-02-12T23:33:34.245Z,6.20
2023-02-12T23:36:01.057Z,7.50
2023-02-12T23:38:27.810Z,7.10
2023-02-12T23:40:54.729Z,6.15
2023-02-12T23:43:21.536Z,6.57
2023-02-12T23:45:48.425Z,5.95
2023-02-12T23:48:15.347Z,6.43
2023-02-12T23:50:42.482Z,6.85
2023-02-12T23:53:10.946Z,7.45
2023-02-12T23:55:39.424Z,6.85
2023-02-12T23:58:07.309Z,7.35
